createdAt,value
2022-10-15T00:01:49.864Z,97859.44
2022-10-15T00:04:17.947Z,97856.52
2022-10-15T00:06:45.772Z,97853.60
2022-10-15T00:09:13.690Z,97855.22
2022-10-15T00:11:41.746Z,97856.00
2022-10-15T00:14:11.456Z,97858.69
2022-10-15T00:16:41.243Z,97850.41
2022-10-15T00:19:10.432Z,97850.66
2022-10-15T00:21:39.413Z,97850.92
2022-10-15T00:24:08.267Z,97851.45
2022-10-15T00:26:36.188Z,97849.07
2022-10-15T00:29:04.950Z,97851.45
2022-10-15T00:31:33.167Z,97845.30
2022-10-15T00:34:02.733Z,97837.82
2022-10-15T00:36:34.489Z,97837.03
2022-10-15T00:39:04.811Z,97836.00
2022-10-15T00:41:38.186Z,97834.14
2022-10-15T00:44:29.469Z,97836.06
2022-10-15T00:47:23.979Z,97835.55
2022-10-15T00:50:08.870Z,97837.77
2022-10-15T00:53:00.528Z,97832.75
2022-10-15T00:55:35.039Z,97832.03
2022-10-15T00:58:14.202Z,97825.95
2022-10-15T01:00:42.760Z,97828.66
2022-10-15T01:03:12.350Z,97825.22
2022-10-15T01:05:40.805Z,97827.66
2022-10-15T01:08:10.854Z,97822.82
2022-10-15T01:11:04.767Z,97823.91
2022-10-15T01:14:21.215Z,97820.69
2022-10-15T01:17:06.793Z,97821.24
2022-10-15T01:20:13.675Z,97822.88
2022-10-15T01:23:08.326Z,97819.42
2022-10-15T01:26:21.314Z,97817.26
2022-10-15T01:29:04.942Z,97820.78
2022-10-15T01:31:46.933Z,97816.25
2022-10-15T01:34:25.832Z,97816.02
2022-10-15T01:37:05.554Z,97817.35
2022-10-15T01:39:40.542Z,97823.48
2022-10-15T01:42:14.342Z,97819.51
2022-10-15T01:44:52.928Z,97824.34
2022-10-15T01:47:33.861Z,97821.13
2022-10-15T01:50:40.971Z,97821.66
2022-10-15T01:56:09.678Z,97818.23
2022-10-15T01:58:41.954Z,97818.78
2022-10-15T02:01:10.307Z,97822.79
2022-10-15T02:03:51.284Z,97820.39
2022-10-15T02:25:42.008Z,97819.56
2022-10-15T02:28:20.402Z,97821.48
2022-10-15T02:30:53.148Z,97815.83
2022-10-15T02:33:39.483Z,97819.56
2022-10-15T02:36:11.535Z,97819.27
2022-10-15T02:38:43.051Z,97812.00
2022-10-15T02:41:12.500Z,97814.92
2022-10-15T02:43:41.906Z,97817.59
2022-10-15T02:46:14.395Z,97820.55
2022-10-15T02:48:43.012Z,97828.30
2022-10-15T02:51:10.903Z,97830.97
2022-10-15T02:53:39.430Z,97828.59
2022-10-15T02:56:07.634Z,97827.26
2022-10-15T02:58:35.889Z,97827.02
2022-10-15T03:01:04.895Z,97821.45
2022-10-15T03:03:32.468Z,97825.49
2022-10-15T03:06:00.530Z,97823.70
2022-10-15T03:08:29.565Z,97823.97
2022-10-15T03:11:02.821Z,97826.16
2022-10-15T03:13:30.910Z,97825.64
2022-10-15T03:15:58.809Z,97820.63
2022-10-15T03:18:26.633Z,97832.68
2022-10-15T03:20:58.181Z,97834.59
2022-10-15T03:23:27.376Z,97835.44
2022-10-15T03:25:57.178Z,97833.06
2022-10-15T03:28:25.540Z,97834.48
2022-10-15T03:30:53.595Z,97833.47
2022-10-15T03:33:23.163Z,97834.31
2022-10-15T03:35:52.195Z,97833.27
2022-10-15T03:38:20.136Z,97830.91
2022-10-15T03:40:48.770Z,97836.77
2022-10-15T03:43:21.775Z,97831.47
2022-10-15T03:45:49.879Z,97834.69
2022-10-15T03:48:20.108Z,97834.72
2022-10-15T03:50:48.401Z,97835.26
2022-10-15T03:53:16.480Z,97831.27
2022-10-15T03:55:44.314Z,97836.39
2022-10-15T03:58:12.083Z,97837.81
2022-10-15T04:00:43.314Z,97839.96
2022-10-15T04:03:11.512Z,97842.11
2022-10-15T04:05:39.282Z,97842.16
2022-10-15T04:08:08.430Z,97840.00
2022-10-15T04:10:37.922Z,97834.44
2022-10-15T04:13:05.622Z,97837.41
2022-10-15T04:15:33.979Z,97839.55
2022-10-15T04:18:03.620Z,97843.84
2022-10-15T04:20:31.593Z,97844.63
2022-10-15T04:23:01.445Z,97843.27
2022-10-15T04:25:29.566Z,97842.45
2022-10-15T04:28:03.133Z,97843.27
2022-10-15T04:30:33.285Z,97842.45
2022-10-15T04:33:01.710Z,97842.18
2022-10-15T04:35:29.777Z,97843.77
2022-10-15T04:37:59.189Z,97843.52
2022-10-15T04:40:28.769Z,97845.64
2022-10-15T04:42:57.287Z,97843.52
2022-10-15T04:45:26.055Z,97847.50
2022-10-15T04:47:56.815Z,97845.08
2022-10-15T04:50:25.955Z,97850.13
2022-10-15T04:53:12.292Z,97849.85
2022-10-15T04:55:40.563Z,97853.84
2022-10-15T04:58:09.003Z,97856.44
2022-10-15T05:00:40.192Z,97848.56
2022-10-15T05:03:26.592Z,97854.23
2022-10-15T05:06:02.710Z,97849.89
2022-10-15T05:08:35.018Z,97846.77
2022-10-15T05:11:26.246Z,97846.98
2022-10-15T05:13:58.548Z,97847.29
2022-10-15T05:16:32.651Z,97852.31
2022-10-15T05:19:08.042Z,97847.88
2022-10-15T05:21:41.705Z,97858.59
2022-10-15T05:24:14.752Z,97857.23
2022-10-15T05:26:53.238Z,97851.73
2022-10-15T05:29:21.679Z,97856.66
2022-10-15T05:31:56.002Z,97853.61
2022-10-15T05:34:27.798Z,97857.50
2022-10-15T05:37:01.447Z,97858.53
2022-10-15T05:39:34.346Z,97862.77
2022-10-15T05:45:57.033Z,97850.14
2022-10-15T05:48:43.433Z,97864.28
2022-10-15T05:51:23.253Z,97871.75
2022-10-15T05:54:03.859Z,97877.45
2022-10-15T05:56:34.359Z,97875.22
2022-10-15T05:59:15.483Z,97875.44
2022-10-15T06:02:28.107Z,97873.92
2022-10-15T06:06:03.947Z,97878.13
2022-10-15T06:18:24.607Z,97897.37
2022-10-15T06:20:56.288Z,97898.63
2022-10-15T06:23:27.314Z,97896.11
2022-10-15T06:26:07.632Z,97897.22
2022-10-15T06:28:37.358Z,97911.09
2022-10-15T06:31:07.443Z,97908.00
2022-10-15T06:33:36.784Z,97912.37
2022-10-15T06:36:10.584Z,97910.86
2022-10-15T06:38:54.001Z,97912.64
2022-10-15T06:41:32.872Z,97915.38
2022-10-15T06:44:03.078Z,97913.58
2022-10-15T06:46:30.907Z,97922.82
2022-10-15T06:49:06.043Z,97934.17
2022-10-15T06:51:36.965Z,97933.75
2022-10-15T06:54:05.071Z,97936.87
2022-10-15T06:56:33.239Z,97934.78
2022-10-15T06:59:01.408Z,97939.02
2022-10-15T07:01:29.503Z,97932.27
2022-10-15T07:04:05.902Z,97929.73
2022-10-15T07:06:46.288Z,97937.77
2022-10-15T07:09:22.276Z,97930.88
2022-10-15T07:12:00.091Z,97929.53
2022-10-15T07:14:41.566Z,97932.72
2022-10-15T07:17:14.566Z,97929.98
2022-10-15T07:19:46.009Z,97930.34
2022-10-15T07:22:17.144Z,97929.64
2022-10-15T07:24:48.189Z,97925.11
2022-10-15T07:27:19.313Z,97925.56
2022-10-15T07:29:47.338Z,97921.84
2022-10-15T07:32:15.889Z,97922.27
2022-10-15T07:34:46.094Z,97920.48
2022-10-15T07:37:16.640Z,97924.75
2022-10-15T07:39:44.707Z,97915.72
2022-10-15T07:42:16.638Z,97923.72
2022-10-15T07:44:48.284Z,97921.92
2022-10-15T07:47:17.265Z,97921.61
2022-10-15T07:50:55.435Z,97924.77
2022-10-15T07:53:27.047Z,97927.06
2022-10-15T07:56:24.574Z,97928.07
2022-10-15T07:59:03.371Z,97931.57
2022-10-15T08:14:48.087Z,97929.18
2022-10-15T08:17:16.273Z,97929.31
2022-10-15T08:19:44.215Z,97932.08
2022-10-15T08:22:12.400Z,97922.09
2022-10-15T08:24:40.425Z,97925.98
2022-10-15T08:27:08.408Z,97916.38
2022-10-15T08:29:39.119Z,97912.14
2022-10-15T08:32:07.142Z,97910.21
2022-10-15T08:34:39.366Z,97915.86
2022-10-15T08:37:08.793Z,97918.72
2022-10-15T08:39:37.294Z,97909.71
2022-10-15T08:42:16.378Z,97911.61
2022-10-15T08:44:51.441Z,97912.84
2022-10-15T08:47:40.830Z,97910.14
2022-10-15T08:50:31.892Z,97915.20
2022-10-15T08:53:00.024Z,97915.77
2022-10-15T08:55:37.341Z,97916.00
2022-10-15T08:58:13.548Z,97913.10
2022-10-15T09:00:52.073Z,97911.88
2022-10-15T09:03:51.191Z,97911.31
2022-10-15T09:06:34.869Z,97912.55
2022-10-15T09:09:20.272Z,97904.73
2022-10-15T09:12:08.711Z,97903.18
2022-10-15T09:14:41.501Z,97909.20
2022-10-15T09:17:24.804Z,97911.58
2022-10-15T09:19:56.027Z,97908.55
2022-10-15T09:22:29.176Z,97908.48
2022-10-15T09:24:57.520Z,97898.66
2022-10-15T09:27:39.313Z,97900.52
2022-10-15T09:30:34.577Z,97904.67
2022-10-15T09:33:22.276Z,97902.77
2022-10-15T09:36:30.651Z,97902.17
2022-10-15T09:39:04.612Z,97904.09
2022-10-15T09:42:08.468Z,97906.52
2022-10-15T09:44:40.148Z,97899.56
2022-10-15T09:47:27.546Z,97898.61
2022-10-15T09:49:57.091Z,97897.20
2022-10-15T09:52:47.254Z,97891.13
2022-10-15T09:55:52.108Z,97892.65
2022-10-15T09:58:45.510Z,97886.61
2022-10-15T10:01:20.516Z,97887.39
2022-10-15T10:04:10.347Z,97887.20
2022-10-15T10:06:54.355Z,97896.69
2022-10-15T10:10:05.592Z,97894.70
2022-10-15T10:13:38.723Z,97888.36
2022-10-15T10:16:15.927Z,97887.61
2022-10-15T10:19:14.491Z,97886.95
2022-10-15T10:21:50.280Z,97882.78
2022-10-15T10:24:31.602Z,97879.86
2022-10-15T10:27:01.504Z,97878.66
2022-10-15T10:29:55.886Z,97883.06
2022-10-15T10:32:40.186Z,97882.95
2022-10-15T10:35:27.662Z,97877.56
2022-10-15T10:38:36.355Z,97883.83
2022-10-15T10:41:24.429Z,97881.22
2022-10-15T10:44:12.785Z,97879.00
2022-10-15T10:47:01.098Z,97879.08
2022-10-15T10:49:57.902Z,97876.91
2022-10-15T10:52:37.827Z,97865.57
2022-10-15T10:55:18.925Z,97867.23
2022-10-15T10:57:57.154Z,97863.36
2022-10-15T11:00:43.365Z,97867.15
2022-10-15T11:03:39.176Z,97866.73
2022-10-15T11:06:24.102Z,97865.00
2022-10-15T11:09:25.941Z,97864.27
2022-10-15T11:12:02.176Z,97861.83
2022-10-15T11:14:55.024Z,97866.23
2022-10-15T11:18:22.825Z,97868.27
2022-10-15T11:21:45.072Z,97861.28
2022-10-15T11:35:40.876Z,97845.42
2022-10-15T11:45:24.445Z,97823.41
2022-10-15T11:48:24.554Z,97827.12
2022-10-15T11:57:44.512Z,97816.30
2022-10-15T12:00:52.744Z,97822.98
2022-10-15T12:03:48.095Z,97829.62
2022-10-15T12:06:25.906Z,97822.92
2022-10-15T12:09:09.108Z,97825.42
2022-10-15T12:15:52.870Z,97819.61
2022-10-15T12:18:57.113Z,97820.49
2022-10-15T12:25:00.000Z,97818.86
2022-10-15T12:27:37.877Z,97810.25
2022-10-15T12:30:16.037Z,97813.14
2022-10-15T12:33:01.842Z,97809.57
2022-10-15T12:35:41.779Z,97808.11
2022-10-15T12:38:33.500Z,97815.02
2022-10-15T12:42:03.640Z,97807.75
2022-10-15T13:17:45.055Z,97780.58
2022-10-15T13:21:47.585Z,97783.86
2022-10-15T13:23:51.753Z,97785.57
2022-10-15T13:26:26.886Z,97788.16
2022-10-15T13:29:02.861Z,97786.38
2022-10-15T13:31:36.659Z,97782.63
2022-10-15T13:34:13.254Z,97789.52
2022-10-15T13:36:42.263Z,97786.30
2022-10-15T13:42:24.983Z,97785.45
2022-10-15T13:45:03.790Z,97787.92
2022-10-15T13:47:37.710Z,97777.70
2022-10-15T13:50:34.622Z,97782.13
2022-10-15T13:53:33.753Z,97773.63
2022-10-15T13:56:35.342Z,97775.12
2022-10-15T13:59:18.977Z,97778.09
2022-10-15T14:01:58.852Z,97776.22
2022-10-15T14:04:29.754Z,97779.77
2022-10-15T14:07:08.554Z,97781.22
2022-10-15T14:09:40.050Z,97781.94
2022-10-15T14:12:10.671Z,97779.80
2022-10-15T14:14:44.710Z,97782.31
2022-10-15T14:17:25.367Z,97784.84
2022-10-15T14:20:25.873Z,97783.19
2022-10-15T14:22:35.763Z,97780.98
2022-10-15T14:27:48.760Z,97778.26
2022-10-15T14:30:27.638Z,97780.14
2022-10-15T14:32:55.795Z,97775.59
2022-10-15T14:35:34.683Z,97779.55
2022-10-15T14:38:13.876Z,97778.00
2022-10-15T14:40:49.603Z,97778.86
2022-10-15T14:43:18.267Z,97776.22
2022-10-15T14:46:00.606Z,97769.56
2022-10-15T14:48:41.201Z,97778.47
2022-10-15T14:51:23.683Z,97777.75
2022-10-15T14:53:53.792Z,97777.05
2022-10-15T14:56:30.254Z,97772.83
2022-10-15T14:59:00.759Z,97782.20
2022-10-15T15:01:39.587Z,97780.84
2022-10-15T15:04:34.418Z,97779.34
2022-10-15T15:07:04.960Z,97777.60
2022-10-15T15:09:33.052Z,97774.30
2022-10-15T15:12:03.035Z,97781.72
2022-10-15T15:14:30.919Z,97775.93
2022-10-15T15:16:58.719Z,97778.48
2022-10-15T15:19:26.667Z,97776.20
2022-10-15T15:21:55.818Z,97774.44
2022-10-15T15:24:23.588Z,97781.44
2022-10-15T15:26:51.474Z,97783.66
2022-10-15T15:29:19.198Z,97784.48
2022-10-15T15:31:48.107Z,97784.25
2022-10-15T15:34:15.865Z,97791.34
2022-10-15T15:36:43.943Z,97790.89
2022-10-15T15:39:11.972Z,97790.99
2022-10-15T15:41:39.772Z,97799.06
2022-10-15T15:44:24.214Z,97807.94
2022-10-15T15:46:53.942Z,97806.96
2022-10-15T15:49:21.840Z,97810.04
2022-10-15T15:51:52.818Z,97813.44
2022-10-15T15:54:20.611Z,97821.45
2022-10-15T15:56:51.330Z,97824.84
2022-10-15T15:59:19.160Z,97831.59
2022-10-15T16:01:47.294Z,97840.06
2022-10-15T16:04:16.886Z,97837.55
2022-10-15T16:06:50.151Z,97838.89
2022-10-15T16:09:21.490Z,97839.88
2022-10-15T16:11:52.426Z,97841.97
2022-10-15T16:14:20.137Z,97842.16
2022-10-15T16:16:48.052Z,97849.17
2022-10-15T16:19:15.814Z,97848.34
2022-10-15T16:24:23.404Z,97853.28
2022-10-15T16:26:51.608Z,97848.05
2022-10-15T16:29:19.532Z,97855.31
2022-10-15T16:31:49.230Z,97852.68
2022-10-15T16:34:21.686Z,97844.63
2022-10-15T16:36:49.697Z,97845.56
2022-10-15T16:39:17.925Z,97858.07
2022-10-15T16:41:45.450Z,97860.12
2022-10-15T16:44:13.183Z,97861.34
2022-10-15T16:46:41.253Z,97863.95
2022-10-15T16:49:09.244Z,97866.63
2022-10-15T16:51:39.856Z,97867.23
2022-10-15T16:54:07.361Z,97871.76
2022-10-15T16:56:35.142Z,97869.55
2022-10-15T16:59:02.913Z,97882.64
2022-10-15T17:01:30.695Z,97873.37
2022-10-15T17:04:00.092Z,97874.56
2022-10-15T17:06:30.510Z,97878.22
2022-10-15T17:09:04.635Z,97879.19
2022-10-15T17:11:40.642Z,97886.30
2022-10-15T17:14:11.670Z,97890.97
2022-10-15T17:16:53.409Z,97893.05
2022-10-15T17:19:35.981Z,97897.50
2022-10-15T18:48:17.041Z,97946.05
2022-10-15T19:02:25.801Z,97975.29
2022-10-15T19:04:57.548Z,97974.78
2022-10-15T19:07:31.691Z,97981.81
2022-10-15T19:10:11.386Z,97979.42
2022-10-15T19:12:44.033Z,97981.31
2022-10-15T19:15:12.247Z,97981.68
2022-10-15T19:20:46.859Z,97980.47
2022-10-15T19:26:39.148Z,97981.15
2022-10-15T19:29:09.639Z,97998.84
2022-10-15T19:31:41.064Z,97994.14
2022-10-15T19:34:13.062Z,97993.44
2022-10-15T19:36:47.754Z,97989.03
2022-10-15T19:39:20.775Z,97991.84
2022-10-15T19:41:51.713Z,97992.19
2022-10-15T19:44:27.053Z,97994.17
2022-10-15T19:46:59.759Z,97995.36
2022-10-15T19:52:30.997Z,97997.17
2022-10-15T19:55:21.075Z,98003.92
2022-10-15T19:57:51.042Z,98005.61
2022-10-15T20:00:21.383Z,98005.66
2022-10-15T20:02:52.920Z,98008.92
2022-10-15T20:05:28.673Z,98008.41
2022-10-15T20:08:00.882Z,98014.92
2022-10-15T20:10:28.901Z,98013.64
2022-10-15T20:12:59.432Z,98024.66
2022-10-15T20:15:33.758Z,98030.61
2022-10-15T20:18:03.645Z,98026.07
2022-10-15T20:20:36.674Z,98030.44
2022-10-15T20:23:09.610Z,98032.37
2022-10-15T20:25:42.978Z,98029.17
2022-10-15T20:28:13.663Z,98030.55
2022-10-15T20:30:44.989Z,98032.44
2022-10-15T20:33:15.101Z,98037.25
2022-10-15T20:35:42.911Z,98037.01
2022-10-15T20:38:11.933Z,98041.58
2022-10-15T20:40:40.956Z,98041.34
2022-10-15T20:43:09.626Z,98039.48
2022-10-15T20:45:44.644Z,98039.24
2022-10-15T20:48:21.945Z,98040.62
2022-10-15T20:50:58.582Z,98042.27
2022-10-15T20:53:27.221Z,98046.32
2022-10-15T20:56:01.085Z,98053.58
2022-10-15T20:58:44.348Z,98051.98
2022-10-15T21:01:33.871Z,98045.29
2022-10-15T21:04:06.526Z,98052.81
2022-10-15T21:06:35.066Z,98054.19
2022-10-15T21:09:12.999Z,98056.66
2022-10-15T21:11:47.513Z,98054.62
2022-10-15T21:14:16.011Z,98055.48
2022-10-15T21:16:43.936Z,98060.94
2022-10-15T21:19:16.999Z,98060.48
2022-10-15T21:21:55.397Z,98063.73
2022-10-15T21:24:42.888Z,98064.34
2022-10-15T21:27:27.512Z,98063.34
2022-10-15T21:29:58.034Z,98069.30
2022-10-15T21:35:14.561Z,98078.79
2022-10-15T21:37:43.829Z,98078.03
2022-10-15T21:43:44.701Z,98081.61
2022-10-15T21:46:14.106Z,98085.19
2022-10-15T21:48:43.435Z,98092.17
2022-10-15T21:51:14.860Z,98090.62
2022-10-15T21:53:43.590Z,98093.87
2022-10-15T21:56:12.053Z,98095.48
2022-10-15T21:58:41.133Z,98095.77
2022-10-15T22:01:24.550Z,98091.53
2022-10-15T22:04:03.474Z,98098.80
2022-10-15T22:06:32.432Z,98099.12
2022-10-15T22:09:02.185Z,98101.82
2022-10-15T22:11:35.081Z,98101.82
2022-10-15T22:14:09.402Z,98099.71
2022-10-15T22:17:25.916Z,98098.42
2022-10-15T22:20:14.535Z,98104.59
2022-10-15T22:22:45.928Z,98107.56
2022-10-15T22:25:14.029Z,98107.05
2022-10-15T22:27:42.235Z,98111.08
2022-10-15T22:30:10.683Z,98113.80
2022-10-15T23:20:20.773Z,98142.60
2022-10-15T23:22:51.149Z,98145.58
2022-10-15T23:25:24.495Z,98139.70
2022-10-15T23:27:57.439Z,98142.14
2022-10-15T23:30:29.385Z,98141.91
2022-10-15T23:32:57.590Z,98141.66
2022-10-15T23:35:25.521Z,98147.27
2022-10-15T23:37:53.705Z,98149.98
2022-10-15T23:40:21.610Z,98154.80
2022-10-15T23:46:22.285Z,98151.05
2022-10-15T23:49:27.102Z,98149.21
2022-10-15T23:55:57.221Z,98154.57
